FW2237 Cammarata IT current weather conditions

sailwx.info

Wind from 159 at 2 knots gusting 5

Air temperature 15.0° C
Dewpoint 9.6° C

Last reported at 2020-Jan-25 14:03 UTC.
Time now 2020-Jan-25 14:24 UTC

Location: N 37°39' E 013°41'.
View on Google Maps.

See reports from other nearby stations

  
Tides and Currents Weather Stations Pressure Air Temp Water Temp Dewpoint Dewpoint Depression Visibility Wind Speed Wind Dir Waves Ship Positions
date/time (UTC)wind fromknots sea level pressurealtimeterstation pressurevisibilityair tempwater tempwave heightnotes
2020-Jan-25 14:03 159 2 gusting 5 15.0
2020-Jan-25 13:47 204 2 gusting 4 15.0
2020-Jan-25 13:31 159 1 gusting 6 15.0
2020-Jan-25 13:01 150 2 gusting 6 15.0
2020-Jan-25 12:46 161 14.4
2020-Jan-25 12:31 181 3 gusting 8 14.4
2020-Jan-25 12:15 070 0 gusting 4 15.0
2020-Jan-25 12:00 160 2 gusting 5 14.4
2020-Jan-25 11:34 157 1 gusting 5 15.0
2020-Jan-25 11:16 155 1 gusting 6 14.4
2020-Jan-25 11:01 143 13.9
2020-Jan-25 10:31 150 1 gusting 5 13.3
2020-Jan-25 10:16 152 0 gusting 3 13.3
2020-Jan-25 10:01 125 0 gusting 3 12.8
2020-Jan-25 09:30 143 0 gusting 3 12.2
2020-Jan-25 09:15 167 0 gusting 3 12.2
2020-Jan-25 09:00 192 12.2
2020-Jan-25 08:45 143 0 gusting 2 12.2
2020-Jan-25 08:30 150 11.7
2020-Jan-25 08:01 186 11.7
2020-Jan-25 07:47 195 0 gusting 4 11.7
2020-Jan-25 07:31 172 0 gusting 3 11.1
2020-Jan-25 07:17 173 0 gusting 2 10.6
2020-Jan-25 07:02 145 0 gusting 2 10.6
2020-Jan-25 06:46 156 10.6
2020-Jan-25 06:31 155 10.6
2020-Jan-25 06:16 170 10.0
2020-Jan-25 06:01 143 10.0
2020-Jan-25 05:45 153 10.6
2020-Jan-25 05:30 151 10.6
2020-Jan-25 05:16 147 2 gusting 6 10.6
2020-Jan-25 05:02 157 0 gusting 3 10.6
2020-Jan-25 04:47 134 10.6
2020-Jan-25 04:32 179 0 gusting 3 10.6
2020-Jan-25 04:17 145 10.6
2020-Jan-25 04:00 155 10.6
2020-Jan-25 03:46 151 0 gusting 3 10.6
2020-Jan-25 03:31 174 0 gusting 3 10.6
2020-Jan-25 03:16 165 0 gusting 4 10.6
2020-Jan-25 03:01 171 10.6
2020-Jan-25 02:45 158 10.6
2020-Jan-25 02:31 157 10.6
2020-Jan-25 02:15 237 10.6
2020-Jan-25 02:01 148 10.6
2020-Jan-25 01:47 207 10.6
2020-Jan-25 01:30 191 0 gusting 3 10.6
2020-Jan-25 01:16 097 10.6
2020-Jan-25 01:00 162 10.6
2020-Jan-25 00:45 108 10.6
2020-Jan-25 00:31 171 0 gusting 2 10.6
2020-Jan-25 00:15 170 10.6
2020-Jan-25 00:00 165 1 gusting 4 10.6
2020-Jan-24 23:46 175 0 gusting 6 11.1
2020-Jan-24 23:30 226 0 gusting 5 10.6
2020-Jan-24 23:02 150 0 gusting 5 10.6
2020-Jan-24 22:48 146 10.6
2020-Jan-24 22:32 111 0 gusting 6 10.6
2020-Jan-24 22:01 140 10.6
2020-Jan-24 21:46 204 10.6
2020-Jan-24 21:31 155 0 gusting 4 10.6
2020-Jan-24 21:02 165 0 gusting 3 10.6
2020-Jan-24 20:47 169 10.6
2020-Jan-24 20:31 155 10.6
2020-Jan-24 20:16 148 10.6
2020-Jan-24 20:00 176 1 gusting 5 10.6
2020-Jan-24 19:45 166 0 gusting 3 10.6
2020-Jan-24 19:30 152 0 gusting 2 11.1
2020-Jan-24 19:00 142 0 gusting 5 11.1
2020-Jan-24 18:19 153 0 gusting 4 11.1
2020-Jan-24 18:00 136 0 gusting 4 11.1
2020-Jan-24 17:45 221 0 gusting 3 11.1
2020-Jan-24 17:30 157 0 gusting 5 11.7
2020-Jan-24 17:00 141 1 gusting 5 11.7
2020-Jan-24 16:45 228 3 gusting 6 11.7
2020-Jan-24 16:31 178 0 gusting 4 11.7
2020-Jan-24 16:15 172 12.2
2020-Jan-24 16:00 184 0 gusting 5 12.2
2020-Jan-24 15:45 182 0 gusting 4 12.2
2020-Jan-24 15:31 273 0 gusting 6 12.2
2020-Jan-24 15:17 176 0 gusting 7 12.8
2020-Jan-24 15:01 190 1 gusting 6 12.8
2020-Jan-24 14:48 159 2 gusting 7 12.8
2020-Jan-24 14:31 135 3 gusting 8 12.8
2020-Jan-24 14:16 207 2 gusting 7 12.8
2020-Jan-24 14:01 168 2 gusting 6 13.3
2020-Jan-24 13:46 157 2 gusting 7 13.3
2020-Jan-24 13:32 155 2 gusting 7 13.3
2020-Jan-24 13:18 159 1 gusting 8 13.3
2020-Jan-24 13:03 158 1 gusting 7 13.3
2020-Jan-24 12:46 141 1 gusting 7 13.3
2020-Jan-24 12:31 143 1 gusting 6 13.3
2020-Jan-24 12:17 158 1 gusting 6 13.3
2020-Jan-24 12:01 109 2 gusting 6 12.8
2020-Jan-24 11:46 196 2 gusting 8 12.2
2020-Jan-24 11:30 164 1 gusting 7 12.8
2020-Jan-24 11:15 183 3 gusting 8 12.8
2020-Jan-24 11:00 167 2 gusting 9 12.8
2020-Jan-24 10:45 146 2 gusting 10 12.8
2020-Jan-24 10:30 170 3 gusting 9 12.8
2020-Jan-24 10:16 224 2 gusting 11 13.3
2020-Jan-24 09:45 185 4 gusting 12 13.3
2020-Jan-24 09:31 144 3 gusting 7 13.3
2020-Jan-24 09:15 162 2 gusting 7 12.8
2020-Jan-24 09:01 148 2 gusting 7 12.2
2020-Jan-24 08:46 145 1 gusting 6 12.2
2020-Jan-24 08:30 162 2 gusting 9 11.7
2020-Jan-24 08:15 150 2 gusting 6 11.1
2020-Jan-24 08:00 195 0 gusting 4 11.1
2020-Jan-24 07:45 154 0 gusting 3 10.6
2020-Jan-24 07:17 156 0 gusting 3 9.4
2020-Jan-24 07:04 162 8.9
2020-Jan-24 06:47 176 8.9
2020-Jan-24 06:17 132 8.3
2020-Jan-24 06:02 158 7.8
2020-Jan-24 05:47 162 7.8
2020-Jan-24 05:17 144 7.8
2020-Jan-24 05:02 152 8.3
2020-Jan-24 04:46 160 8.3
2020-Jan-24 04:16 165 8.3
2020-Jan-24 04:01 218 8.3
2020-Jan-24 03:47 170 8.3
2020-Jan-24 03:30 146 0 gusting 4 8.3
2020-Jan-24 03:15 131 0 gusting 2 7.8
2020-Jan-24 03:00 163 7.8
2020-Jan-24 02:47 160 7.8
2020-Jan-24 02:30 176 7.8
2020-Jan-24 02:16 152 7.8
2020-Jan-24 01:46 169 7.2
2020-Jan-24 01:32 179 7.2
2020-Jan-24 01:16 160 6.7
2020-Jan-24 00:46 203 5.0
2020-Jan-24 00:31 172 5.0
2020-Jan-24 00:16 173 5.0
2020-Jan-23 23:46 211 5.6
2020-Jan-23 23:30 199 5.6
2020-Jan-23 23:16 277 5.6
2020-Jan-23 22:46 330 5.6
2020-Jan-23 22:32 239 6.1
2020-Jan-23 22:16 239 5.6
2020-Jan-23 21:45 217 6.1
2020-Jan-23 21:30 216 6.1
2020-Jan-23 21:15 275 5.6
2020-Jan-23 20:47 275 5.0
2020-Jan-23 20:31 275 4.4
2020-Jan-23 20:16 266 4.4
2020-Jan-23 20:00 268 4.4
2020-Jan-23 19:45 287 5.0
2020-Jan-23 19:30 276 5.0
2020-Jan-23 19:15 270 5.0
2020-Jan-23 19:00 269 5.6
2020-Jan-23 18:45 270 5.6
2020-Jan-23 18:31 272 6.1
2020-Jan-23 18:15 273 6.1
2020-Jan-23 18:01 271 6.7
2020-Jan-23 17:48 271 7.2
2020-Jan-23 17:32 297 7.2
2020-Jan-23 17:17 275 7.8
2020-Jan-23 17:02 283 8.3
2020-Jan-23 16:48 288 8.9
2020-Jan-23 16:32 271 9.4
2020-Jan-23 16:16 271 10.0
2020-Jan-23 16:01 154 11.1
2020-Jan-23 15:46 154 12.2
2020-Jan-23 15:31 145 12.8
2020-Jan-23 15:17 138 1 gusting 4 13.3
2020-Jan-23 15:01 148 0 gusting 3 13.9
2020-Jan-23 14:46 168 0 gusting 4 13.9
2020-Jan-23 14:31 144 2 gusting 5 13.9
2020-Jan-23 14:16 148 1 gusting 5 14.4
2020-Jan-23 14:01 140 0 gusting 4 14.4